Time;durP1;ratioP1;P1;durP2;ratioP2;P2;SDS_P1;SDS_P2;PMS_P1;PMS_P2;Temp;Humidity;BMP_temperature;BMP_pressure;BME280_temperature;BME280_humidity;BME280_pressure;Samples;Min_cycle;Max_cycle;Signal;HPM_P1;HPM_P2
2023/01/05 06:55:44;;;;;;;16.02;4.10;;;;;;;;;;10587297;27;20893;-82
2023/01/05 07:00:45;;;;;;;10.95;3.45;;;;;;;;;;10596642;28;20024;-84
2023/01/05 07:05:46;;;;;;;9.43;2.58;;;;;;;;;;10599699;28;20044;-83
2023/01/05 07:10:47;;;;;;;9.45;2.75;;;;;;;;;;10601475;28;20082;-83
2023/01/05 07:15:48;;;;;;;10.90;3.15;;;;;;;;;;10600985;28;20024;-82
2023/01/05 07:20:49;;;;;;;8.93;3.20;;;;;;;;;;10598881;28;20040;-82
2023/01/05 07:25:51;;;;;;;11.55;3.95;;;;;;;;;;10600109;28;20138;-82
2023/01/05 07:30:51;;;;;;;;;;;;;;;;;;10599884;28;20027;-83
2023/01/05 07:35:53;;;;;;;17.10;7.97;;;;;;;;;;10607155;28;19896;-79
2023/01/05 07:40:53;;;;;;;;;;;;;;;;;;10599514;28;20031;-82
2023/01/05 07:45:58;;;;;;;52.33;38.22;;;;;;;;;;10590796;28;19904;-81
2023/01/05 07:51:00;;;;;;;8.85;3.83;;;;;;;;;;10585808;28;20144;-81
2023/01/05 07:56:10;;;;;;;9.55;2.90;;;;;;;;;;10588609;28;20128;-82
2023/01/05 08:01:13;;;;;;;6.85;2.45;;;;;;;;;;10587112;28;20027;-82
2023/01/05 08:06:19;;;;;;;5.95;2.10;;;;;;;;;;10546679;28;20055;-81
2023/01/05 08:11:21;;;;;;;8.35;3.05;;;;;;;;;;10555132;28;20059;-78
2023/01/05 08:16:22;;;;;;;8.68;3.35;;;;;;;;;;10536246;28;20101;-80
2023/01/05 08:21:23;;;;;;;8.75;3.00;;;;;;;;;;10555115;28;20035;-80
2023/01/05 08:26:25;;;;;;;9.20;3.63;;;;;;;;;;10556705;28;20028;-80
2023/01/05 08:31:27;;;;;;;11.43;4.03;;;;;;;;;;10555462;28;20393;-81
2023/01/05 08:36:30;;;;;;;14.18;5.22;;;;;;;;;;10555359;28;20449;-81
2023/01/05 08:41:32;;;;;;;14.85;6.75;;;;;;;;;;10564562;28;20032;-81
2023/01/05 08:46:34;;;;;;;14.60;8.18;;;;;;;;;;10556866;28;20381;-81
2023/01/05 08:51:35;;;;;;;12.98;5.63;;;;;;;;;;10551873;28;20028;-80
2023/01/05 08:56:36;;;;;;;18.67;5.28;;;;;;;;;;10567553;28;20478;-83
2023/01/05 09:01:37;;;;;;;;;;;;;;;;;;10555728;28;20074;-80
2023/01/05 09:06:38;;;;;;;13.73;4.57;;;;;;;;;;10554764;28;19973;-81
2023/01/05 09:11:39;;;;;;;;;;;;;;;;;;10555454;28;20031;-81
2023/01/05 09:16:40;;;;;;;10.63;4.13;;;;;;;;;;10553904;28;20262;-81
2023/01/05 09:21:41;;;;;;;15.50;5.45;;;;;;;;;;10562215;28;20051;-80
2023/01/05 09:26:42;;;;;;;;;;;;;;;;;;10570660;28;20020;-81
2023/01/05 09:31:43;;;;;;;18.40;5.53;;;;;;;;;;10555740;28;19904;-81
2023/01/05 09:36:44;;;;;;;;;;;;;;;;;;10556666;28;20032;-81
2023/01/05 09:41:47;;;;;;;16.17;6.03;;;;;;;;;;10556435;28;19958;-81
2023/01/05 09:46:50;;;;;;;14.85;5.47;;;;;;;;;;10555172;28;20044;-79
2023/01/05 09:51:54;;;;;;;15.02;5.55;;;;;;;;;;10556236;28;20099;-79
2023/01/05 09:56:58;;;;;;;14.00;5.32;;;;;;;;;;10551402;28;20024;-79
2023/01/05 10:02:01;;;;;;;17.90;5.60;;;;;;;;;;10551917;28;20393;-79
2023/01/05 10:07:13;;;;;;;11.80;4.43;;;;;;;;;;10551658;28;20048;-80
2023/01/05 10:17:53;;;;;;;17.20;5.95;;;;;;;;;;10549974;28;20042;-80
2023/01/05 10:22:54;;;;;;;;;;;;;;;;;;10549964;28;20024;-78
2023/01/05 10:27:55;;;;;;;12.50;4.93;;;;;;;;;;10550369;28;19926;-80
2023/01/05 10:32:56;;;;;;;;;;;;;;;;;;10551707;28;20040;-80
2023/01/05 10:38:05;;;;;;;14.73;5.45;;;;;;;;;;10550908;28;19904;-80
2023/01/05 10:43:14;;;;;;;16.63;5.88;;;;;;;;;;10549936;28;20051;-79
2023/01/05 10:48:17;;;;;;;14.02;4.68;;;;;;;;;;10554201;28;20020;-82
2023/01/05 10:53:20;;;;;;;12.00;4.45;;;;;;;;;;10558866;28;20055;-81
2023/01/05 10:58:22;;;;;;;17.77;4.93;;;;;;;;;;10556407;28;20064;-81
2023/01/05 11:03:29;;;;;;;17.35;4.78;;;;;;;;;;10565632;28;20076;-80
2023/01/05 11:08:31;;;;;;;15.40;5.05;;;;;;;;;;10564483;28;20062;-79
2023/01/05 11:13:36;;;;;;;9.75;3.40;;;;;;;;;;10551189;28;20093;-80
2023/01/05 11:18:40;;;;;;;12.45;4.30;;;;;;;;;;10550824;28;20068;-81
2023/01/05 11:23:42;;;;;;;15.95;5.53;;;;;;;;;;10552888;28;20031;-81
2023/01/05 11:28:59;;;;;;;12.50;4.63;;;;;;;;;;10552166;28;20419;-79
2023/01/05 11:34:04;;;;;;;16.65;5.05;;;;;;;;;;10558050;28;20028;-81
2023/01/05 11:39:06;;;;;;;12.52;4.43;;;;;;;;;;10554420;28;20024;-78
2023/01/05 11:44:11;;;;;;;10.68;3.47;;;;;;;;;;10559298;28;20091;-81
2023/01/05 11:49:17;;;;;;;10.48;3.63;;;;;;;;;;10560238;28;20146;-78
2023/01/05 11:54:34;;;;;;;11.25;3.80;;;;;;;;;;10558663;28;20035;-79
2023/01/05 11:59:37;;;;;;;17.02;4.57;;;;;;;;;;10561158;28;20028;-79
2023/01/05 12:04:38;;;;;;;13.30;4.28;;;;;;;;;;10559401;28;20020;-79
2023/01/05 12:09:43;;;;;;;12.55;4.22;;;;;;;;;;10559061;28;20074;-80
2023/01/05 12:14:53;;;;;;;10.18;3.78;;;;;;;;;;10559557;28;20032;-80
2023/01/05 12:20:13;;;;;;;14.23;5.20;;;;;;;;;;10560801;28;20032;-79
2023/01/05 12:25:20;;;;;;;9.57;3.50;;;;;;;;;;10559201;28;20028;-79
2023/01/05 12:30:41;;;;;;;11.20;3.53;;;;;;;;;;10557057;28;20077;-81
2023/01/05 12:35:48;;;;;;;13.38;4.68;;;;;;;;;;10555390;28;20055;-78
2023/01/05 12:41:00;;;;;;;11.85;3.92;;;;;;;;;;10553639;28;20030;-80
2023/01/05 12:46:13;;;;;;;12.30;3.80;;;;;;;;;;10553157;28;20031;-79
2023/01/05 12:51:18;;;;;;;14.75;4.43;;;;;;;;;;10560536;28;20497;-79
2023/01/05 12:56:25;;;;;;;13.10;3.92;;;;;;;;;;10554487;28;20020;-79
2023/01/05 13:01:29;;;;;;;9.68;3.65;;;;;;;;;;10560730;28;20124;-78
2023/01/05 13:06:39;;;;;;;13.18;4.10;;;;;;;;;;10566490;28;20031;-78
2023/01/05 13:12:00;;;;;;;15.60;4.40;;;;;;;;;;10573612;28;20081;-78
2023/01/05 13:17:14;;;;;;;10.02;3.72;;;;;;;;;;10562383;28;20119;-82
2023/01/05 13:22:22;;;;;;;11.18;3.53;;;;;;;;;;10552802;28;20032;-79
2023/01/05 13:27:24;;;;;;;13.93;4.68;;;;;;;;;;10557345;28;20050;-79
2023/01/05 13:32:29;;;;;;;12.88;3.85;;;;;;;;;;10551289;28;20478;-80
2023/01/05 13:37:48;;;;;;;14.35;4.07;;;;;;;;;;10552311;28;20031;-80
2023/01/05 13:43:00;;;;;;;13.77;4.78;;;;;;;;;;10549753;28;20036;-80
2023/01/05 13:48:01;;;;;;;9.68;3.70;;;;;;;;;;10551984;28;20024;-79
2023/01/05 13:53:02;;;;;;;;;;;;;;;;;;10550840;28;20050;-79
2023/01/05 13:58:03;;;;;;;13.60;4.40;;;;;;;;;;10551168;28;20323;-79
2023/01/05 14:03:07;;;;;;;9.18;3.60;;;;;;;;;;10547221;28;20020;-79
2023/01/05 14:08:17;;;;;;;12.38;3.45;;;;;;;;;;10560476;28;20043;-79
2023/01/05 14:13:37;;;;;;;13.18;4.70;;;;;;;;;;10549604;28;20489;-80
2023/01/05 14:18:51;;;;;;;10.25;3.28;;;;;;;;;;10551008;28;20549;-80
2023/01/05 14:23:55;;;;;;;11.85;3.35;;;;;;;;;;10546951;28;20039;-80
2023/01/05 14:28:56;;;;;;;12.50;3.55;;;;;;;;;;10543529;28;20024;-79
2023/01/05 14:33:57;;;;;;;;;;;;;;;;;;10545060;28;20023;-80
2023/01/05 14:38:59;;;;;;;9.25;3.35;;;;;;;;;;10542299;28;19907;-81
2023/01/05 14:44:02;;;;;;;7.68;2.63;;;;;;;;;;10543839;28;20024;-79
2023/01/05 14:49:03;;;;;;;12.00;3.60;;;;;;;;;;10544743;28;20486;-80
2023/01/05 14:54:05;;;;;;;8.05;2.63;;;;;;;;;;10543338;28;20035;-80
2023/01/05 14:59:09;;;;;;;7.50;2.97;;;;;;;;;;10543698;28;20101;-79
2023/01/05 15:04:15;;;;;;;9.27;3.35;;;;;;;;;;10542829;28;20024;-80
2023/01/05 15:09:22;;;;;;;8.70;3.50;;;;;;;;;;10541976;28;20028;-80
2023/01/05 15:14:36;;;;;;;9.27;3.33;;;;;;;;;;10545946;28;20112;-80
2023/01/05 15:20:02;;;;;;;9.93;4.15;;;;;;;;;;10550181;28;20371;-80
2023/01/05 15:25:03;;;;;;;8.90;5.10;;;;;;;;;;10564610;28;20123;-82
2023/01/05 15:30:13;;;;;;;9.23;3.63;;;;;;;;;;10554795;28;20378;-81
2023/01/05 15:35:18;;;;;;;10.45;3.70;;;;;;;;;;10551116;28;20034;-79
2023/01/05 15:40:22;;;;;;;8.02;3.30;;;;;;;;;;10551897;28;20032;-81
2023/01/05 15:45:26;;;;;;;12.45;4.03;;;;;;;;;;10549817;28;20027;-80
2023/01/05 15:50:44;;;;;;;16.27;7.43;;;;;;;;;;10551014;28;20026;-81
2023/01/05 15:55:45;;;;;;;9.23;4.47;;;;;;;;;;10554044;28;20040;-81
2023/01/05 16:01:04;;;;;;;8.57;3.72;;;;;;;;;;10549952;28;20392;-79
2023/01/05 16:06:15;;;;;;;10.80;4.25;;;;;;;;;;10549137;28;20028;-80
2023/01/05 16:11:31;;;;;;;8.55;3.55;;;;;;;;;;10548185;28;20020;-80
2023/01/05 16:16:58;;;;;;;10.45;4.72;;;;;;;;;;10551125;28;20387;-82
2023/01/05 16:22:05;;;;;;;12.18;4.90;;;;;;;;;;10542604;28;20040;-81
2023/01/05 16:27:08;;;;;;;13.98;6.07;;;;;;;;;;10555010;28;20397;-80
2023/01/05 16:32:46;;;;;;;11.00;4.60;;;;;;;;;;10558754;28;20111;-82
2023/01/05 16:38:12;;;;;;;9.98;4.15;;;;;;;;;;10531829;28;20033;-79
2023/01/05 16:43:18;;;;;;;12.63;6.28;;;;;;;;;;10569719;28;20033;-80
2023/01/05 16:48:34;;;;;;;12.70;4.95;;;;;;;;;;10559328;28;20024;-81
2023/01/05 16:53:40;;;;;;;16.23;6.25;;;;;;;;;;10557443;28;20036;-83
2023/01/05 16:58:41;;;;;;;9.45;4.60;;;;;;;;;;10563077;28;20020;-81
2023/01/05 17:03:43;;;;;;;12.32;4.78;;;;;;;;;;10555127;28;20146;-81
2023/01/05 17:08:44;;;;;;;10.35;4.18;;;;;;;;;;10556911;22;20128;-85
2023/01/05 17:13:48;;;;;;;12.50;4.72;;;;;;;;;;10447195;28;20093;-85
2023/01/05 17:18:49;;;;;;;10.60;3.55;;;;;;;;;;10437545;28;20033;-81
2023/01/05 17:24:04;;;;;;;8.85;3.80;;;;;;;;;;10433612;28;20061;-87
2023/01/05 17:29:44;;;;;;;12.63;4.35;;;;;;;;;;10426357;28;20034;-87
2023/01/05 17:52:25;;;;;;;16.60;5.72;;;;;;;;;;10416045;28;20030;-86
2023/01/05 18:03:35;;;;;;;14.93;4.30;;;;;;;;;;10419615;28;20155;-87
2023/01/05 18:25:40;;;;;;;40.20;30.08;;;;;;;;;;10418890;28;20049;-88
2023/01/05 18:31:02;;;;;;;17.43;9.57;;;;;;;;;;10404536;28;20044;-88
2023/01/05 18:42:27;;;;;;;92.10;73.15;;;;;;;;;;10447737;28;20077;-87
2023/01/05 18:47:28;;;;;;;42.58;25.92;;;;;;;;;;10441550;28;20034;-87
2023/01/05 18:52:29;;;;;;;22.50;15.18;;;;;;;;;;10424560;28;20060;-87
2023/01/05 18:57:30;;;;;;;14.40;7.80;;;;;;;;;;10423096;28;20040;-86
2023/01/05 19:02:32;;;;;;;9.52;4.60;;;;;;;;;;10418933;28;20589;-87
2023/01/05 19:07:33;;;;;;;10.65;6.50;;;;;;;;;;10419708;28;20047;-87
2023/01/05 19:12:34;;;;;;;13.88;8.38;;;;;;;;;;10420594;28;20121;-87
2023/01/05 19:17:35;;;;;;;7.25;4.70;;;;;;;;;;10418647;28;20148;-87
2023/01/05 19:22:36;;;;;;;9.38;4.53;;;;;;;;;;10421164;28;20545;-87
2023/01/05 19:27:37;;;;;;;9.85;5.25;;;;;;;;;;10417849;28;20029;-87
2023/01/05 19:32:38;;;;;;;40.03;31.67;;;;;;;;;;10420326;28;20067;-88
2023/01/05 19:37:41;;;;;;;52.60;46.70;;;;;;;;;;10421705;28;20117;-86
2023/01/05 19:42:42;;;;;;;14.25;9.32;;;;;;;;;;10419868;28;20506;-87
2023/01/05 19:47:43;;;;;;;11.55;5.82;;;;;;;;;;10419927;28;20098;-87
2023/01/05 19:52:44;;;;;;;10.43;5.78;;;;;;;;;;10420584;28;20030;-87
2023/01/05 19:57:45;;;;;;;7.80;4.50;;;;;;;;;;10419024;28;20025;-87
2023/01/05 20:02:46;;;;;;;7.78;4.60;;;;;;;;;;10423505;28;20029;-87
2023/01/05 20:07:47;;;;;;;8.93;4.22;;;;;;;;;;10427582;28;20053;-87
2023/01/05 20:12:48;;;;;;;9.95;4.85;;;;;;;;;;10426782;28;20124;-87
2023/01/05 20:17:49;;;;;;;8.63;4.55;;;;;;;;;;10429062;28;20033;-86
